createdAt,value
2023-05-05T00:03:54.748Z,4.40
2023-05-05T00:08:12.649Z,4.82
2023-05-05T00:12:32.147Z,4.85
2023-05-05T00:16:52.531Z,5.00
2023-05-05T00:21:10.084Z,4.70
2023-05-05T00:25:29.233Z,5.10
2023-05-05T00:29:50.731Z,4.80
2023-05-05T00:34:10.305Z,5.20
2023-05-05T00:38:28.805Z,5.40
2023-05-05T00:42:48.092Z,4.97
2023-05-05T00:47:13.931Z,5.20
2023-05-05T00:51:32.057Z,5.70
2023-05-05T00:55:50.624Z,4.95
2023-05-05T01:00:10.027Z,4.95
2023-05-05T01:04:30.611Z,4.07
2023-05-05T01:09:04.495Z,5.20
2023-05-05T01:13:31.479Z,5.57
2023-05-05T01:18:01.022Z,5.17
2023-05-05T01:22:28.288Z,4.68
2023-05-05T01:27:04.766Z,4.65
2023-05-05T01:31:51.709Z,5.40
2023-05-05T01:36:22.876Z,4.72
2023-05-05T01:40:46.240Z,5.75
2023-05-05T01:45:08.275Z,5.57
2023-05-05T01:49:29.106Z,5.13
2023-05-05T01:53:51.591Z,5.82
2023-05-05T01:58:13.504Z,4.90
2023-05-05T02:02:34.785Z,5.07
2023-05-05T02:06:57.354Z,5.13
2023-05-05T02:11:15.994Z,4.80
2023-05-05T02:15:39.239Z,5.00
2023-05-05T02:19:58.941Z,5.30
2023-05-05T02:24:20.115Z,5.28
2023-05-05T02:28:43.474Z,4.93
2023-05-05T02:33:07.249Z,5.10
2023-05-05T02:37:28.590Z,4.85
2023-05-05T02:41:52.638Z,4.70
2023-05-05T02:46:19.966Z,4.60
2023-05-05T02:50:40.686Z,4.65
2023-05-05T02:55:20.437Z,5.32
2023-05-05T02:59:49.664Z,4.63
2023-05-05T03:04:18.784Z,4.95
2023-05-05T03:08:45.523Z,5.07
2023-05-05T03:13:08.717Z,4.88
2023-05-05T03:17:36.869Z,4.60
2023-05-05T03:21:58.035Z,5.38
2023-05-05T03:26:18.745Z,5.00
2023-05-05T03:30:40.119Z,5.07
2023-05-05T03:34:59.637Z,5.20
2023-05-05T03:39:22.248Z,5.43
2023-05-05T03:43:43.117Z,5.73
2023-05-05T03:48:01.319Z,5.63
2023-05-05T03:52:23.769Z,5.57
2023-05-05T03:56:43.381Z,5.63
2023-05-05T04:01:05.075Z,5.87
2023-05-05T04:05:23.682Z,5.38
2023-05-05T04:09:45.485Z,5.60
2023-05-05T04:14:04.993Z,5.23
2023-05-05T04:18:23.242Z,6.03
2023-05-05T04:22:41.675Z,6.03
2023-05-05T04:27:03.762Z,5.30
2023-05-05T04:31:24.708Z,5.47
2023-05-05T04:35:44.441Z,5.65
2023-05-05T04:40:02.591Z,5.80
2023-05-05T04:44:25.102Z,8.03
2023-05-05T04:48:44.832Z,9.35
2023-05-05T04:53:05.922Z,5.45
2023-05-05T04:57:24.052Z,5.80
2023-05-05T05:01:43.469Z,5.10
2023-05-05T05:06:03.119Z,5.18
2023-05-05T05:10:21.144Z,4.87
2023-05-05T05:14:39.340Z,4.55
2023-05-05T05:19:01.406Z,4.70
2023-05-05T05:23:21.472Z,4.90
2023-05-05T05:27:39.622Z,4.70
2023-05-05T05:31:57.646Z,4.95
2023-05-05T05:36:17.813Z,4.82
2023-05-05T05:40:37.415Z,4.60
2023-05-05T05:44:57.058Z,4.68
2023-05-05T05:49:16.370Z,4.22
2023-05-05T05:53:38.205Z,4.53
2023-05-05T05:57:58.783Z,4.40
2023-05-05T06:02:16.599Z,4.80
2023-05-05T06:06:34.432Z,4.65
2023-05-05T06:10:54.163Z,4.73
2023-05-05T06:15:13.479Z,3.90
2023-05-05T06:19:31.563Z,4.60
2023-05-05T06:23:49.718Z,3.93
2023-05-05T06:28:09.160Z,4.15
2023-05-05T06:32:29.009Z,4.00
2023-05-05T06:36:46.844Z,3.73
2023-05-05T06:41:05.164Z,3.85
2023-05-05T06:45:24.301Z,3.53
2023-05-05T06:49:44.182Z,4.15
2023-05-05T06:54:02.268Z,3.30
2023-05-05T06:58:20.144Z,3.60
2023-05-05T07:02:40.047Z,3.13
2023-05-05T07:06:59.545Z,3.70
2023-05-05T07:11:17.705Z,3.40
2023-05-05T07:15:35.506Z,3.72
2023-05-05T07:19:58.272Z,3.43
2023-05-05T07:24:17.720Z,3.30
2023-05-05T07:28:36.433Z,3.50
2023-05-05T07:32:55.033Z,3.70
2023-05-05T07:37:16.320Z,3.30
2023-05-05T07:41:36.026Z,3.03
2023-05-05T07:45:54.288Z,3.42
2023-05-05T07:50:12.645Z,3.17
2023-05-05T07:54:32.000Z,3.33
2023-05-05T07:58:51.445Z,3.25
2023-05-05T08:03:11.470Z,3.30
2023-05-05T08:07:30.624Z,2.92
2023-05-05T08:11:49.990Z,3.00
2023-05-05T08:16:09.925Z,3.00
2023-05-05T08:20:30.472Z,2.90
2023-05-05T08:24:48.898Z,2.97
2023-05-05T08:29:08.511Z,2.90
2023-05-05T08:33:28.092Z,3.60
2023-05-05T08:37:46.865Z,3.38
2023-05-05T08:42:04.750Z,3.15
2023-05-05T08:46:28.163Z,2.87
2023-05-05T08:50:51.235Z,3.40
2023-05-05T08:55:16.238Z,3.30
2023-05-05T08:59:35.639Z,3.40
2023-05-05T09:03:54.842Z,3.07
2023-05-05T09:08:14.289Z,3.42
2023-05-05T09:12:32.707Z,3.17
2023-05-05T09:16:50.149Z,3.10
2023-05-05T09:21:23.135Z,3.13
2023-05-05T09:25:42.183Z,2.78
2023-05-05T09:29:59.766Z,2.80
2023-05-05T09:34:18.576Z,2.80
2023-05-05T09:38:37.465Z,3.00
2023-05-05T09:43:02.901Z,2.70
2023-05-05T09:47:29.349Z,2.50
2023-05-05T09:51:49.219Z,2.90
2023-05-05T09:56:10.345Z,2.90
2023-05-05T10:00:39.775Z,2.87
2023-05-05T10:05:07.436Z,2.63
2023-05-05T10:09:25.477Z,2.35
2023-05-05T10:13:44.547Z,2.53
2023-05-05T10:18:08.150Z,2.50
2023-05-05T10:22:30.417Z,3.15
2023-05-05T10:26:51.143Z,2.88
2023-05-05T10:31:26.251Z,3.30
2023-05-05T10:35:47.379Z,3.33
2023-05-05T10:40:07.345Z,3.05
2023-05-05T10:44:26.701Z,3.70
2023-05-05T10:48:52.602Z,2.90
2023-05-05T10:53:18.465Z,3.35
2023-05-05T10:57:43.537Z,3.00
2023-05-05T11:02:18.840Z,3.30
2023-05-05T11:06:38.070Z,3.28
2023-05-05T11:10:58.053Z,3.33
2023-05-05T11:15:37.808Z,3.30
2023-05-05T11:19:55.669Z,3.20
2023-05-05T11:24:30.381Z,2.60
2023-05-05T11:29:01.804Z,2.90
2023-05-05T11:33:28.470Z,2.53
2023-05-05T11:38:01.989Z,2.28
2023-05-05T11:42:25.782Z,2.13
2023-05-05T11:47:18.668Z,2.00
2023-05-05T11:51:37.827Z,2.58
2023-05-05T11:56:07.922Z,2.55
2023-05-05T12:00:36.536Z,2.63
2023-05-05T12:04:56.394Z,2.20
2023-05-05T12:09:17.135Z,2.30
2023-05-05T12:13:35.436Z,2.70
2023-05-05T12:17:54.385Z,2.25
2023-05-05T12:22:20.600Z,2.80
2023-05-05T12:26:38.659Z,2.90
2023-05-05T12:30:59.501Z,2.70
2023-05-05T12:35:19.902Z,3.20
2023-05-05T12:39:39.066Z,2.70
2023-05-05T12:43:57.720Z,2.60
2023-05-05T12:48:25.874Z,2.83
2023-05-05T12:52:47.072Z,2.70
2023-05-05T12:57:12.852Z,2.97
2023-05-05T13:01:31.247Z,2.70
2023-05-05T13:05:48.470Z,2.75
2023-05-05T13:10:12.178Z,2.63
2023-05-05T13:14:31.777Z,2.92
2023-05-05T13:18:53.764Z,2.58
2023-05-05T13:23:12.965Z,2.70
2023-05-05T13:27:32.404Z,2.80
2023-05-05T13:31:52.196Z,2.80
2023-05-05T13:36:10.550Z,2.45
2023-05-05T13:40:28.341Z,3.07
2023-05-05T13:44:47.905Z,2.78
2023-05-05T13:49:07.477Z,2.80
2023-05-05T13:53:25.461Z,2.50
2023-05-05T13:57:43.762Z,2.70
2023-05-05T14:02:03.644Z,2.90
2023-05-05T14:06:22.819Z,2.58
2023-05-05T14:10:41.537Z,2.60
2023-05-05T14:14:58.866Z,2.95
2023-05-05T14:19:18.420Z,2.55
2023-05-05T14:23:37.903Z,2.77
2023-05-05T14:27:56.798Z,2.90
2023-05-05T14:32:14.136Z,3.03
2023-05-05T14:36:33.647Z,3.17
2023-05-05T14:40:53.518Z,2.83
2023-05-05T14:45:12.373Z,2.92
2023-05-05T14:49:29.703Z,2.92
2023-05-05T14:53:48.977Z,3.00
2023-05-05T14:58:08.695Z,2.72
2023-05-05T15:02:26.749Z,3.00
2023-05-05T15:06:46.487Z,2.83
2023-05-05T15:11:07.304Z,2.75
2023-05-05T15:15:29.972Z,2.50
2023-05-05T15:19:48.611Z,2.90
2023-05-05T15:24:06.826Z,2.30
2023-05-05T15:28:26.378Z,2.85
2023-05-05T15:32:45.593Z,2.70
2023-05-05T15:37:03.432Z,2.90
2023-05-05T15:41:21.477Z,2.85
2023-05-05T15:45:41.330Z,3.22
2023-05-05T15:50:00.765Z,2.97
2023-05-05T15:54:18.948Z,3.00
2023-05-05T15:58:37.318Z,2.97
2023-05-05T16:02:56.503Z,3.03
2023-05-05T16:07:17.088Z,3.00
2023-05-05T16:11:37.550Z,3.15
2023-05-05T16:15:55.659Z,3.10
2023-05-05T16:20:14.987Z,3.20
2023-05-05T16:24:34.550Z,3.42
2023-05-05T16:28:52.574Z,3.13
2023-05-05T16:33:10.735Z,2.83
2023-05-05T16:37:30.260Z,3.17
2023-05-05T16:41:51.278Z,3.65
2023-05-05T16:46:11.335Z,3.53
2023-05-05T16:50:28.899Z,3.22
2023-05-05T16:54:55.328Z,3.20
2023-05-05T16:59:16.608Z,3.42
2023-05-05T17:03:36.130Z,3.23
2023-05-05T17:07:53.582Z,3.28
2023-05-05T17:12:14.925Z,3.50
2023-05-05T17:16:32.972Z,3.73
2023-05-05T17:20:51.441Z,3.40
2023-05-05T17:25:09.596Z,3.13
2023-05-05T17:29:31.532Z,3.40
2023-05-05T17:33:50.993Z,3.40
2023-05-05T17:38:09.162Z,3.72
2023-05-05T17:42:30.278Z,3.40
2023-05-05T17:46:49.895Z,3.43
2023-05-05T17:51:09.821Z,3.50
2023-05-05T17:55:27.963Z,4.20
2023-05-05T17:59:45.792Z,3.80
2023-05-05T18:04:04.755Z,3.72
2023-05-05T18:08:24.642Z,4.00
2023-05-05T18:12:42.778Z,5.30
2023-05-05T18:17:01.380Z,4.78
2023-05-05T18:21:20.307Z,2.90
2023-05-05T18:25:39.962Z,3.88
2023-05-05T18:29:57.945Z,3.53
2023-05-05T18:34:16.802Z,4.05
2023-05-05T18:38:35.337Z,4.00
2023-05-05T18:42:55.242Z,4.30
2023-05-05T18:47:13.209Z,4.20
2023-05-05T18:51:32.263Z,4.80
2023-05-05T18:55:50.650Z,3.70
2023-05-05T19:00:12.158Z,4.82
2023-05-05T19:04:32.260Z,4.55
2023-05-05T19:08:49.824Z,4.68
2023-05-05T19:13:10.882Z,4.73
2023-05-05T19:17:28.884Z,5.35
2023-05-05T19:21:47.039Z,4.85
2023-05-05T19:26:05.750Z,5.30
2023-05-05T19:30:24.912Z,6.30
2023-05-05T19:34:44.085Z,6.55
2023-05-05T19:39:03.065Z,6.80
2023-05-05T19:43:20.318Z,6.88
2023-05-05T19:47:39.819Z,7.88
2023-05-05T19:51:59.454Z,7.55
2023-05-05T19:56:17.997Z,7.10
2023-05-05T20:00:35.843Z,7.40
2023-05-05T20:04:55.022Z,6.55
2023-05-05T20:09:15.043Z,7.23
2023-05-05T20:13:34.390Z,6.85
2023-05-05T20:17:53.854Z,6.78
2023-05-05T20:22:13.219Z,7.13
2023-05-05T20:26:33.404Z,7.07
2023-05-05T20:30:51.169Z,7.78
2023-05-05T20:35:10.270Z,7.30
2023-05-05T20:39:31.885Z,7.13
2023-05-05T20:43:51.457Z,7.85
2023-05-05T20:48:11.413Z,7.93
2023-05-05T20:52:35.117Z,7.60
2023-05-05T20:56:58.189Z,7.22
2023-05-05T21:01:16.093Z,9.07
2023-05-05T21:05:34.040Z,8.80
2023-05-05T21:09:52.329Z,8.82
2023-05-05T21:14:11.602Z,8.13
2023-05-05T21:18:31.535Z,8.80
2023-05-05T21:22:49.235Z,8.47
2023-05-05T21:27:07.523Z,8.52
2023-05-05T21:31:26.850Z,9.00
2023-05-05T21:35:46.645Z,9.27
2023-05-05T21:40:04.874Z,9.20
2023-05-05T21:44:22.711Z,8.95
2023-05-05T21:48:42.909Z,9.97
2023-05-05T21:53:01.887Z,10.05
2023-05-05T21:57:20.149Z,10.50
2023-05-05T22:01:39.415Z,10.77
2023-05-05T22:06:00.652Z,10.90
2023-05-05T22:10:21.488Z,11.77
2023-05-05T22:14:41.453Z,11.13
2023-05-05T22:18:59.368Z,10.93
2023-05-05T22:23:19.079Z,12.43
2023-05-05T22:27:38.807Z,11.52
2023-05-05T22:31:56.648Z,12.23
2023-05-05T22:36:15.119Z,12.15
2023-05-05T22:40:34.473Z,12.32
2023-05-05T22:44:53.962Z,10.70
2023-05-05T22:49:12.059Z,10.63
2023-05-05T22:53:29.930Z,11.35
2023-05-05T22:57:50.062Z,10.50
2023-05-05T23:02:09.139Z,9.80
2023-05-05T23:06:29.183Z,10.40
2023-05-05T23:10:48.291Z,11.65
2023-05-05T23:15:09.984Z,11.90
2023-05-05T23:19:29.057Z,11.80
2023-05-05T23:23:49.175Z,10.93
2023-05-05T23:28:06.621Z,10.48
2023-05-05T23:32:26.860Z,11.67
2023-05-05T23:36:46.227Z,11.73
2023-05-05T23:41:03.946Z,12.07
2023-05-05T23:45:21.985Z,12.87
2023-05-05T23:49:41.843Z,11.68
2023-05-05T23:54:01.290Z,12.23
2023-05-05T23:58:19.172Z,11.70
